Time;durP1;ratioP1;P1;durP2;ratioP2;P2;SDS_P1;SDS_P2;PMS_P1;PMS_P2;Temp;Humidity;BMP_temperature;BMP_pressure;BME280_temperature;BME280_humidity;BME280_pressure;Samples;Min_cycle;Max_cycle;Signal;HPM_P1;HPM_P2
2022/06/26 00:01:07;;;;;;;;;;;17.40;99.90;;;;;;4941717;28;20010;-73
2022/06/26 00:03:39;;;;;;;;;;;17.30;99.90;;;;;;4966185;28;19931;-73
2022/06/26 00:06:11;;;;;;;;;;;17.30;99.90;;;;;;4960970;28;19926;-73
2022/06/26 00:08:42;;;;;;;;;;;17.30;99.90;;;;;;4962623;28;19926;-73
2022/06/26 00:11:09;;;;;;;;;;;17.30;99.90;;;;;;4941156;28;19922;-72
2022/06/26 00:13:41;;;;;;;;;;;17.30;99.90;;;;;;4947305;28;19926;-73
2022/06/26 00:16:12;;;;;;;;;;;17.30;99.90;;;;;;4945888;28;20009;-73
2022/06/26 00:18:44;;;;;;;;;;;17.20;99.90;;;;;;4948529;29;20459;-73
2022/06/26 00:21:16;;;;;;;;;;;17.20;99.90;;;;;;4943513;28;19922;-72
2022/06/26 00:23:47;;;;;;;;;;;17.10;99.90;;;;;;4964841;28;19930;-73
2022/06/26 00:26:19;;;;;;;;;;;17.00;99.90;;;;;;4966157;28;19922;-73
2022/06/26 00:28:52;;;;;;;;;;;17.00;99.90;;;;;;4977626;28;19923;-72
2022/06/26 00:31:19;;;;;;;;;;;17.00;99.90;;;;;;4953796;28;19923;-72
2022/06/26 00:33:50;;;;;;;;;;;17.00;99.90;;;;;;4945420;28;19922;-72
2022/06/26 00:36:22;;;;;;;;;;;17.00;99.90;;;;;;4955374;28;20033;-73
2022/06/26 00:38:54;;;;;;;;;;;17.00;99.90;;;;;;4970432;28;20041;-73
2022/06/26 00:41:25;;;;;;;;;;;16.90;99.90;;;;;;4970240;28;20034;-73
2022/06/26 00:43:57;;;;;;;;;;;16.90;99.90;;;;;;4948086;28;19922;-73
2022/06/26 00:46:29;;;;;;;;;;;16.90;99.90;;;;;;4967160;28;19922;-73
2022/06/26 00:49:00;;;;;;;;;;;16.90;99.90;;;;;;4983305;28;19933;-73
2022/06/26 00:51:33;;;;;;;;;;;16.90;99.90;;;;;;4959291;28;20410;-73
2022/06/26 00:54:05;;;;;;;;;;;16.90;99.90;;;;;;4960513;28;20324;-74
2022/06/26 00:56:33;;;;;;;;;;;16.80;99.90;;;;;;4978058;28;19929;-73
2022/06/26 00:59:04;;;;;;;;;;;16.80;99.90;;;;;;4950982;29;19926;-72
2022/06/26 01:01:36;;;;;;;;;;;16.70;99.90;;;;;;4953288;28;19938;-73
2022/06/26 01:04:08;;;;;;;;;;;16.70;99.90;;;;;;4964195;28;19929;-72
2022/06/26 01:06:39;;;;;;;;;;;16.70;99.90;;;;;;4978296;28;19926;-72
2022/06/26 01:09:12;;;;;;;;;;;16.60;99.90;;;;;;4959833;28;20409;-73
2022/06/26 01:11:44;;;;;;;;;;;16.60;99.90;;;;;;4958369;28;19923;-73
2022/06/26 01:14:11;;;;;;;;;;;16.70;99.90;;;;;;4946345;28;19922;-73
2022/06/26 01:16:43;;;;;;;;;;;16.70;99.90;;;;;;4965411;28;20294;-73
2022/06/26 01:19:15;;;;;;;;;;;16.60;99.90;;;;;;4956764;28;19927;-72
2022/06/26 01:21:47;;;;;;;;;;;16.50;99.90;;;;;;4953436;28;19962;-72
2022/06/26 01:24:18;;;;;;;;;;;16.50;99.90;;;;;;4962405;28;19926;-72
2022/06/26 01:26:50;;;;;;;;;;;16.40;99.90;;;;;;4953945;28;19923;-73
2022/06/26 01:29:23;;;;;;;;;;;16.40;99.90;;;;;;4951361;28;19930;-73
2022/06/26 01:31:54;;;;;;;;;;;16.40;99.90;;;;;;4960652;28;20339;-73
2022/06/26 01:34:26;;;;;;;;;;;16.40;99.90;;;;;;4964762;28;19927;-73
2022/06/26 01:36:58;;;;;;;;;;;16.30;99.90;;;;;;4981823;28;20025;-72
2022/06/26 01:39:30;;;;;;;;;;;16.40;99.90;;;;;;4963701;28;19930;-73
2022/06/26 01:42:03;;;;;;;;;;;16.30;99.90;;;;;;4972412;28;19929;-73
2022/06/26 01:44:30;;;;;;;;;;;16.40;99.90;;;;;;4961801;28;19993;-73
2022/06/26 01:46:57;;;;;;;;;;;16.30;99.90;;;;;;4939044;28;19954;-73
2022/06/26 01:49:33;;;;;;;;;;;16.40;99.90;;;;;;4976260;28;19958;-73
2022/06/26 01:52:05;;;;;;;;;;;16.40;99.90;;;;;;4957235;28;20009;-72
2022/06/26 01:54:32;;;;;;;;;;;16.40;99.90;;;;;;4962033;28;19926;-72
2022/06/26 01:57:03;;;;;;;;;;;16.40;99.90;;;;;;4942448;28;20041;-72
2022/06/26 01:59:35;;;;;;;;;;;16.40;99.90;;;;;;4959422;28;19930;-73
2022/06/26 02:02:10;;;;;;;;;;;16.30;99.90;;;;;;4970080;28;20366;-73
2022/06/26 02:04:41;;;;;;;;;;;16.30;99.90;;;;;;4946734;28;19927;-73
2022/06/26 02:07:13;;;;;;;;;;;16.30;99.90;;;;;;4934510;29;19926;-73
2022/06/26 02:15:50;;;;;;;;;;;16.20;99.90;;;;;;4932361;28;20160;-73
2022/06/26 02:18:21;;;;;;;;;;;16.20;99.90;;;;;;4981794;28;19965;-73
2022/06/26 02:20:54;;;;;;;;;;;16.10;99.90;;;;;;4938600;28;20421;-73
2022/06/26 02:23:25;;;;;;;;;;;16.10;99.90;;;;;;4951974;28;19929;-73
2022/06/26 02:25:57;;;;;;;;;;;16.10;99.90;;;;;;4949573;28;19922;-72
2022/06/26 02:28:24;;;;;;;;;;;16.20;99.90;;;;;;4949895;28;20302;-73
2022/06/26 02:30:50;;;;;;;;;;;16.20;99.90;;;;;;4934307;28;20414;-72
2022/06/26 02:33:24;;;;;;;;;;;16.30;99.90;;;;;;4973577;28;19998;-72
2022/06/26 02:35:56;;;;;;;;;;;16.30;99.90;;;;;;4948679;28;19926;-73
2022/06/26 02:38:28;;;;;;;;;;;16.30;99.90;;;;;;4940845;29;20466;-73
2022/06/26 02:40:55;;;;;;;;;;;16.30;99.90;;;;;;4954902;28;19933;-73
2022/06/26 02:43:27;;;;;;;;;;;16.30;99.90;;;;;;4960618;28;19926;-73
2022/06/26 02:46:02;;;;;;;;;;;16.20;99.90;;;;;;4957831;28;20310;-72
2022/06/26 02:48:34;;;;;;;;;;;16.20;99.90;;;;;;4973249;28;19933;-73
2022/06/26 02:51:06;;;;;;;;;;;16.20;99.90;;;;;;4973253;28;19926;-73
2022/06/26 02:53:38;;;;;;;;;;;16.10;99.90;;;;;;4958911;28;20442;-73
2022/06/26 02:56:10;;;;;;;;;;;16.00;99.90;;;;;;4959210;28;19923;-73
2022/06/26 02:58:42;;;;;;;;;;;15.90;99.90;;;;;;4971073;28;19990;-72
2022/06/26 03:01:16;;;;;;;;;;;15.90;99.90;;;;;;4974266;28;20029;-72
2022/06/26 03:03:51;;;;;;;;;;;15.90;99.90;;;;;;4963168;28;20267;-73
2022/06/26 03:06:18;;;;;;;;;;;15.90;99.90;;;;;;4962891;28;20490;-73
2022/06/26 03:08:50;;;;;;;;;;;15.90;99.90;;;;;;4952196;28;19926;-73
2022/06/26 03:11:22;;;;;;;;;;;15.80;99.90;;;;;;4968712;28;20009;-73
2022/06/26 03:13:54;;;;;;;;;;;15.80;99.90;;;;;;4965405;28;19932;-73
2022/06/26 03:16:25;;;;;;;;;;;15.80;99.90;;;;;;4967243;28;20021;-73
2022/06/26 03:18:55;;;;;;;;;;;15.80;99.90;;;;;;4964022;28;20299;-73
2022/06/26 03:21:28;;;;;;;;;;;15.80;99.90;;;;;;4958041;28;19927;-73
2022/06/26 03:24:02;;;;;;;;;;;15.90;99.90;;;;;;4968743;28;19961;-73
2022/06/26 03:26:35;;;;;;;;;;;15.90;99.90;;;;;;4969030;28;20398;-72
2022/06/26 03:29:08;;;;;;;;;;;15.90;99.90;;;;;;4979527;28;19930;-72
2022/06/26 03:31:40;;;;;;;;;;;15.90;99.90;;;;;;4960755;28;19926;-72
2022/06/26 03:34:13;;;;;;;;;;;15.90;99.90;;;;;;4960524;28;19961;-73
2022/06/26 03:36:45;;;;;;;;;;;15.80;99.90;;;;;;4978542;28;19972;-73
2022/06/26 03:39:18;;;;;;;;;;;15.80;99.90;;;;;;4960589;28;19923;-72
2022/06/26 03:42:00;;;;;;;;;;;15.80;99.90;;;;;;4959973;28;19923;-73
2022/06/26 03:44:35;;;;;;;;;;;15.90;99.90;;;;;;4962099;28;20382;-72
2022/06/26 03:47:07;;;;;;;;;;;15.90;99.90;;;;;;4974493;28;19977;-73
2022/06/26 03:49:39;;;;;;;;;;;15.90;99.90;;;;;;4956007;28;20340;-73
2022/06/26 03:52:10;;;;;;;;;;;15.90;99.90;;;;;;4960430;28;19985;-73
2022/06/26 03:54:43;;;;;;;;;;;15.90;99.90;;;;;;4956466;28;20044;-73
2022/06/26 03:57:18;;;;;;;;;;;15.90;99.90;;;;;;4953314;28;19955;-73
2022/06/26 03:59:52;;;;;;;;;;;15.90;99.90;;;;;;4961461;28;20328;-73
2022/06/26 04:02:42;;;;;;;;;;;15.90;99.90;;;;;;4948975;29;19945;-73
2022/06/26 04:05:17;;;;;;;;;;;15.90;99.90;;;;;;4952706;28;20029;-73
2022/06/26 04:07:45;;;;;;;;;;;15.90;99.90;;;;;;4964994;28;19922;-73
2022/06/26 04:10:22;;;;;;;;;;;15.90;99.90;;;;;;4961197;28;19929;-73
2022/06/26 04:12:49;;;;;;;;;;;15.90;99.90;;;;;;4977312;28;20391;-73
2022/06/26 04:15:16;;;;;;;;;;;15.90;99.90;;;;;;4966142;28;19922;-73
2022/06/26 04:17:43;;;;;;;;;;;15.90;99.90;;;;;;4959239;28;20418;-73
2022/06/26 04:20:14;;;;;;;;;;;15.90;99.90;;;;;;4943766;29;20844;-74
2022/06/26 04:22:43;;;;;;;;;;;15.90;99.90;;;;;;4978896;28;19961;-73
2022/06/26 04:25:12;;;;;;;;;;;15.90;99.90;;;;;;4952111;29;19978;-73
2022/06/26 04:27:44;;;;;;;;;;;15.90;99.90;;;;;;4962376;28;20060;-73
2022/06/26 04:30:16;;;;;;;;;;;15.90;99.90;;;;;;4963399;28;20022;-72
2022/06/26 04:32:48;;;;;;;;;;;15.90;99.90;;;;;;4962857;28;20017;-73
2022/06/26 04:35:20;;;;;;;;;;;15.90;99.90;;;;;;4980386;28;19927;-73
2022/06/26 04:37:52;;;;;;;;;;;15.90;99.90;;;;;;4966871;28;19969;-73
2022/06/26 04:40:24;;;;;;;;;;;15.90;99.90;;;;;;4965041;28;19933;-73
2022/06/26 04:42:55;;;;;;;;;;;15.90;99.90;;;;;;4950054;29;19929;-73
2022/06/26 04:45:27;;;;;;;;;;;15.90;99.90;;;;;;4965454;28;19944;-73
2022/06/26 04:47:59;;;;;;;;;;;15.90;99.90;;;;;;4951324;28;19929;-73
2022/06/26 04:50:30;;;;;;;;;;;16.00;99.90;;;;;;4981365;28;19922;-73
2022/06/26 04:53:03;;;;;;;;;;;16.00;99.90;;;;;;4946523;29;19930;-73
2022/06/26 04:55:35;;;;;;;;;;;16.10;99.90;;;;;;4981101;28;19932;-73
2022/06/26 04:58:07;;;;;;;;;;;16.20;99.90;;;;;;4968061;28;20123;-74
2022/06/26 05:00:39;;;;;;;;;;;16.20;99.90;;;;;;4962623;28;19930;-74
2022/06/26 05:03:16;;;;;;;;;;;16.20;99.90;;;;;;4963199;28;19950;-73
2022/06/26 05:06:06;;;;;;;;;;;16.20;99.90;;;;;;4974150;28;20469;-73
2022/06/26 05:08:42;;;;;;;;;;;16.30;99.90;;;;;;4951225;28;19983;-73
2022/06/26 05:11:16;;;;;;;;;;;16.30;99.90;;;;;;4966499;28;20088;-73
2022/06/26 05:13:51;;;;;;;;;;;16.40;99.90;;;;;;4944506;28;19926;-73
2022/06/26 05:16:39;;;;;;;;;;;16.40;99.90;;;;;;4954676;28;20287;-73
2022/06/26 05:19:12;;;;;;;;;;;16.50;99.90;;;;;;4936410;29;19923;-72
2022/06/26 05:21:44;;;;;;;;;;;16.60;99.90;;;;;;4961430;28;20017;-73
2022/06/26 05:24:11;;;;;;;;;;;16.70;99.90;;;;;;4945451;28;19931;-73
2022/06/26 05:26:46;;;;;;;;;;;16.80;99.90;;;;;;4966328;28;19923;-73
2022/06/26 05:29:17;;;;;;;;;;;16.90;99.90;;;;;;4963418;28;19922;-73
2022/06/26 05:31:49;;;;;;;;;;;16.90;99.90;;;;;;4977397;28;19928;-73
2022/06/26 05:34:22;;;;;;;;;;;16.80;99.90;;;;;;4964253;28;19926;-73
2022/06/26 05:36:54;;;;;;;;;;;16.70;99.90;;;;;;4947457;29;20002;-72
2022/06/26 05:39:20;;;;;;;;;;;16.70;99.90;;;;;;4944168;29;19923;-73
2022/06/26 05:41:52;;;;;;;;;;;16.60;99.90;;;;;;4978705;28;19922;-74
2022/06/26 05:44:24;;;;;;;;;;;16.70;99.90;;;;;;4978158;28;19923;-73
2022/06/26 05:46:56;;;;;;;;;;;16.70;99.90;;;;;;4956957;28;19969;-73
2022/06/26 05:49:34;;;;;;;;;;;16.80;99.90;;;;;;4952500;29;20338;-74
2022/06/26 05:52:28;;;;;;;;;;;16.80;99.90;;;;;;4951413;28;19927;-73
2022/06/26 05:55:38;;;;;;;;;;;16.90;99.90;;;;;;4924808;29;19930;-72
2022/06/26 05:58:28;;;;;;;;;;;17.00;99.90;;;;;;4926905;28;19933;-74
2022/06/26 06:01:14;;;;;;;;;;;17.10;99.90;;;;;;4941288;29;19970;-73
2022/06/26 06:03:45;;;;;;;;;;;17.20;99.90;;;;;;4978038;28;19930;-74
2022/06/26 06:06:11;;;;;;;;;;;17.30;99.90;;;;;;4948241;29;19923;-73
2022/06/26 06:08:43;;;;;;;;;;;17.30;99.90;;;;;;4961632;28;20343;-73
2022/06/26 06:11:15;;;;;;;;;;;17.40;99.90;;;;;;4958198;28;19970;-73
2022/06/26 06:13:46;;;;;;;;;;;17.50;99.90;;;;;;4958203;28;20363;-73
2022/06/26 06:16:18;;;;;;;;;;;17.60;99.90;;;;;;4960122;28;19938;-72
2022/06/26 06:18:50;;;;;;;;;;;17.70;99.90;;;;;;4974431;28;19931;-73
2022/06/26 06:21:26;;;;;;;;;;;17.80;99.90;;;;;;4978195;28;20308;-74
2022/06/26 06:23:52;;;;;;;;;;;17.90;99.90;;;;;;4959415;28;19929;-73
2022/06/26 06:26:25;;;;;;;;;;;18.00;99.90;;;;;;4954856;28;19922;-73
2022/06/26 06:29:07;;;;;;;;;;;18.10;99.90;;;;;;4960344;28;19922;-73
2022/06/26 06:31:34;;;;;;;;;;;18.20;99.90;;;;;;4944798;29;20370;-73
2022/06/26 06:34:08;;;;;;;;;;;18.40;99.90;;;;;;4955702;28;19923;-73
2022/06/26 06:36:40;;;;;;;;;;;18.50;99.90;;;;;;4948665;29;19922;-73
2022/06/26 06:39:11;;;;;;;;;;;18.60;99.90;;;;;;4964941;28;19954;-73
2022/06/26 06:41:38;;;;;;;;;;;18.80;99.90;;;;;;4950259;29;20439;-73
2022/06/26 06:44:12;;;;;;;;;;;18.90;99.90;;;;;;4957917;28;20311;-73
2022/06/26 06:47:04;;;;;;;;;;;19.10;99.90;;;;;;4941664;29;19922;-73
2022/06/26 06:49:36;;;;;;;;;;;19.20;99.90;;;;;;4965808;28;19926;-73
2022/06/26 06:52:11;;;;;;;;;;;19.40;99.90;;;;;;4944934;28;20012;-73
2022/06/26 06:54:38;;;;;;;;;;;19.60;99.90;;;;;;4946037;29;19942;-73
2022/06/26 06:57:05;;;;;;;;;;;19.70;99.90;;;;;;4943017;29;19922;-72
2022/06/26 06:59:37;;;;;;;;;;;19.90;99.90;;;;;;4959664;28;19934;-73
2022/06/26 07:02:08;;;;;;;;;;;20.00;99.90;;;;;;4956469;28;19922;-72
2022/06/26 07:04:40;;;;;;;;;;;20.10;99.90;;;;;;4959534;28;20350;-73
2022/06/26 07:07:12;;;;;;;;;;;20.30;99.90;;;;;;4972147;28;20010;-73
2022/06/26 07:09:39;;;;;;;;;;;20.40;99.90;;;;;;4933774;29;19930;-73
2022/06/26 07:12:10;;;;;;;;;;;20.50;99.90;;;;;;4949425;29;20375;-73
2022/06/26 07:14:42;;;;;;;;;;;20.60;99.90;;;;;;4967876;28;20018;-73
2022/06/26 07:17:14;;;;;;;;;;;20.60;99.90;;;;;;4968357;28;19926;-73
2022/06/26 07:19:50;;;;;;;;;;;20.70;99.90;;;;;;4971427;28;19922;-73
2022/06/26 07:22:17;;;;;;;;;;;20.70;99.90;;;;;;4954493;28;19922;-73
2022/06/26 07:24:56;;;;;;;;;;;20.80;99.90;;;;;;4986767;28;19949;-73
2022/06/26 07:27:35;;;;;;;;;;;20.90;99.90;;;;;;4945239;28;20037;-72
2022/06/26 07:30:07;;;;;;;;;;;21.00;99.90;;;;;;4978450;28;19936;-73
2022/06/26 07:34:12;;;;;;;;;;;21.00;99.90;;;;;;4950551;28;19930;-74
2022/06/26 07:35:56;;;;;;;;;;;21.10;99.90;;;;;;4959263;28;19934;-73
2022/06/26 07:38:29;;;;;;;;;;;21.20;99.90;;;;;;4940078;29;19930;-74
2022/06/26 07:41:01;;;;;;;;;;;21.30;99.90;;;;;;4974342;28;20306;-73
2022/06/26 07:43:33;;;;;;;;;;;21.40;99.90;;;;;;4962805;28;20387;-73
2022/06/26 07:46:00;;;;;;;;;;;21.50;99.90;;;;;;4978642;28;20379;-72
2022/06/26 07:48:33;;;;;;;;;;;21.60;99.90;;;;;;4953442;28;20065;-73
2022/06/26 07:51:06;;;;;;;;;;;21.60;99.90;;;;;;4968082;28;19929;-73
2022/06/26 07:53:38;;;;;;;;;;;21.70;99.90;;;;;;4958735;28;19930;-73
2022/06/26 07:56:09;;;;;;;;;;;21.80;99.90;;;;;;4942976;29;20339;-73
2022/06/26 07:58:41;;;;;;;;;;;21.80;99.90;;;;;;4956330;28;20015;-73
2022/06/26 08:01:08;;;;;;;;;;;21.90;99.90;;;;;;4948566;29;20013;-73
2022/06/26 08:03:35;;;;;;;;;;;22.00;99.90;;;;;;4949486;28;20017;-74
2022/06/26 08:06:02;;;;;;;;;;;22.10;99.90;;;;;;4967800;28;19923;-72
2022/06/26 08:08:28;;;;;;;;;;;22.20;99.90;;;;;;4965787;28;19926;-73
2022/06/26 08:11:00;;;;;;;;;;;22.40;99.90;;;;;;4945794;28;20391;-73
2022/06/26 08:13:27;;;;;;;;;;;22.40;99.90;;;;;;4974399;28;19923;-73
2022/06/26 08:15:58;;;;;;;;;;;22.50;99.90;;;;;;4956423;28;19923;-73
2022/06/26 08:18:30;;;;;;;;;;;22.60;99.90;;;;;;4945808;29;19922;-72
2022/06/26 08:22:00;;;;;;;;;;;22.70;99.90;;;;;;4947460;28;19926;-74
2022/06/26 08:23:49;;;;;;;;;;;22.80;99.90;;;;;;4944012;29;19926;-73
2022/06/26 08:26:21;;;;;;;;;;;22.90;99.90;;;;;;4949435;29;19923;-73
2022/06/26 08:28:52;;;;;;;;;;;23.00;99.90;;;;;;4966775;28;19929;-73
2022/06/26 08:31:24;;;;;;;;;;;23.00;99.90;;;;;;4947887;29;19927;-73
2022/06/26 08:33:56;;;;;;;;;;;23.10;99.90;;;;;;4952767;29;19922;-73
2022/06/26 08:36:27;;;;;;;;;;;23.20;99.90;;;;;;4939703;28;20009;-73
2022/06/26 08:38:59;;;;;;;;;;;23.20;99.90;;;;;;4946910;29;20387;-73
2022/06/26 08:41:33;;;;;;;;;;;23.20;99.90;;;;;;4958930;28;19929;-73
2022/06/26 08:44:05;;;;;;;;;;;23.40;99.90;;;;;;4977344;28;19926;-73
2022/06/26 08:46:39;;;;;;;;;;;23.50;99.90;;;;;;4954137;28;20290;-73
2022/06/26 08:49:10;;;;;;;;;;;23.70;99.90;;;;;;4968086;28;19929;-72
2022/06/26 08:51:44;;;;;;;;;;;23.70;99.90;;;;;;4977870;28;19960;-73
2022/06/26 08:54:17;;;;;;;;;;;23.70;99.90;;;;;;4946736;29;19953;-73
2022/06/26 08:56:49;;;;;;;;;;;23.80;99.90;;;;;;4947625;28;19929;-73
2022/06/26 08:59:21;;;;;;;;;;;23.90;99.90;;;;;;4977534;28;19973;-73
2022/06/26 09:01:53;;;;;;;;;;;24.00;99.90;;;;;;4952203;28;19923;-73
2022/06/26 09:04:24;;;;;;;;;;;24.10;99.90;;;;;;4936355;29;19942;-74
2022/06/26 09:06:56;;;;;;;;;;;24.30;99.90;;;;;;4935889;29;19922;-73
2022/06/26 09:09:28;;;;;;;;;;;24.40;99.90;;;;;;4937140;29;19929;-72
2022/06/26 09:12:01;;;;;;;;;;;24.40;99.90;;;;;;4951647;29;19930;-72
2022/06/26 09:14:33;;;;;;;;;;;24.50;99.90;;;;;;4953871;28;19944;-73
2022/06/26 09:17:05;;;;;;;;;;;24.60;99.90;;;;;;4956055;28;20030;-73
2022/06/26 09:19:38;;;;;;;;;;;24.70;99.90;;;;;;4956203;28;19922;-73
2022/06/26 09:22:11;;;;;;;;;;;24.80;99.90;;;;;;4965695;28;19945;-74
2022/06/26 09:24:54;;;;;;;;;;;24.90;99.90;;;;;;4963509;28;19942;-72
2022/06/26 09:27:25;;;;;;;;;;;25.10;99.90;;;;;;4970270;28;19922;-73
2022/06/26 09:29:57;;;;;;;;;;;25.20;99.90;;;;;;4941333;29;20391;-73
2022/06/26 09:32:30;;;;;;;;;;;25.20;99.90;;;;;;4945902;28;20365;-73
2022/06/26 09:35:02;;;;;;;;;;;25.30;99.90;;;;;;4955982;28;19926;-73
2022/06/26 09:37:39;;;;;;;;;;;25.40;99.90;;;;;;4953038;29;19930;-73
2022/06/26 09:40:13;;;;;;;;;;;25.50;99.90;;;;;;4946032;29;19922;-73
2022/06/26 09:42:40;;;;;;;;;;;25.60;99.90;;;;;;4982170;28;20305;-73
2022/06/26 09:45:12;;;;;;;;;;;25.70;99.90;;;;;;4940789;28;19929;-73
2022/06/26 09:47:44;;;;;;;;;;;25.90;99.90;;;;;;4960024;28;19923;-73
2022/06/26 09:50:15;;;;;;;;;;;26.00;99.90;;;;;;4958264;28;19926;-73
2022/06/26 09:52:47;;;;;;;;;;;26.10;99.90;;;;;;4973063;28;19929;-73
2022/06/26 09:55:19;;;;;;;;;;;26.10;99.90;;;;;;4971002;28;20014;-73
2022/06/26 09:57:46;;;;;;;;;;;26.20;99.90;;;;;;4969504;28;19992;-73
2022/06/26 10:00:18;;;;;;;;;;;26.20;99.90;;;;;;4954916;28;19922;-73
2022/06/26 10:06:25;;;;;;;;;;;26.30;99.90;;;;;;4943355;29;19926;-73
2022/06/26 10:08:35;;;;;;;;;;;26.40;99.90;;;;;;4957698;28;19923;-72
2022/06/26 10:11:07;;;;;;;;;;;26.40;99.90;;;;;;4943187;29;19922;-73
2022/06/26 10:13:39;;;;;;;;;;;26.60;99.90;;;;;;4946102;29;19945;-73
2022/06/26 10:16:35;;;;;;;;;;;26.70;99.90;;;;;;4950528;29;19926;-73
2022/06/26 10:19:20;;;;;;;;;;;26.80;99.90;;;;;;4942736;29;19923;-73
2022/06/26 10:21:52;;;;;;;;;;;27.00;99.90;;;;;;4950461;28;19962;-73
2022/06/26 10:24:24;;;;;;;;;;;27.10;99.90;;;;;;4934878;29;20023;-73
2022/06/26 10:26:57;;;;;;;;;;;27.20;99.90;;;;;;4934353;29;19926;-73
2022/06/26 10:29:35;;;;;;;;;;;27.30;99.90;;;;;;4935457;29;20434;-73
2022/06/26 10:32:07;;;;;;;;;;;27.40;99.90;;;;;;4964012;28;19930;-73
2022/06/26 10:34:34;;;;;;;;;;;27.40;99.90;;;;;;4942275;28;19923;-73
2022/06/26 10:37:14;;;;;;;;;;;27.50;99.90;;;;;;4964337;28;19926;-73
2022/06/26 10:39:47;;;;;;;;;;;27.60;99.90;;;;;;4943494;28;19923;-73
2022/06/26 10:45:19;;;;;;;;;;;27.90;99.90;;;;;;4935342;29;20529;-73
2022/06/26 10:47:55;;;;;;;;;;;28.00;99.90;;;;;;4962268;28;19923;-73
2022/06/26 10:50:26;;;;;;;;;;;28.20;99.90;;;;;;4947030;29;19927;-73
2022/06/26 10:53:10;;;;;;;;;;;28.20;99.90;;;;;;4962023;28;19922;-73
2022/06/26 10:55:44;;;;;;;;;;;28.20;99.90;;;;;;4970723;28;19933;-73
2022/06/26 10:58:27;;;;;;;;;;;28.30;99.90;;;;;;4964282;28;20002;-73
2022/06/26 11:01:00;;;;;;;;;;;28.30;99.90;;;;;;4971034;28;19927;-73
2022/06/26 11:03:32;;;;;;;;;;;28.30;99.90;;;;;;4957196;28;19922;-73
2022/06/26 11:06:08;;;;;;;;;;;28.30;99.70;;;;;;4968519;28;19929;-73
2022/06/26 11:08:43;;;;;;;;;;;28.30;99.30;;;;;;4958095;28;19929;-73
2022/06/26 11:11:17;;;;;;;;;;;28.30;99.00;;;;;;4976188;28;19934;-73
2022/06/26 11:13:50;;;;;;;;;;;28.50;99.90;;;;;;4942594;28;19926;-73
2022/06/26 11:16:41;;;;;;;;;;;28.50;98.70;;;;;;4950891;29;19927;-73
2022/06/26 11:19:24;;;;;;;;;;;28.60;97.30;;;;;;4943947;29;19923;-74
2022/06/26 11:22:05;;;;;;;;;;;28.80;97.70;;;;;;4981561;28;19926;-72
2022/06/26 11:24:32;;;;;;;;;;;29.00;98.40;;;;;;4970562;28;19923;-72
2022/06/26 11:26:58;;;;;;;;;;;29.10;98.60;;;;;;4949952;28;19933;-73
2022/06/26 11:29:30;;;;;;;;;;;29.10;97.50;;;;;;4953193;28;19923;-73
2022/06/26 11:32:01;;;;;;;;;;;29.10;97.30;;;;;;4946745;29;19995;-72
2022/06/26 11:34:28;;;;;;;;;;;29.20;97.40;;;;;;4951194;28;19927;-73
2022/06/26 11:36:56;;;;;;;;;;;29.40;95.70;;;;;;4986916;28;20026;-73
2022/06/26 11:39:24;;;;;;;;;;;29.40;94.70;;;;;;4947897;28;19922;-72
2022/06/26 11:41:55;;;;;;;;;;;29.50;95.20;;;;;;4944611;29;19961;-73
2022/06/26 11:44:27;;;;;;;;;;;29.30;93.50;;;;;;4943347;29;19965;-73
2022/06/26 11:46:54;;;;;;;;;;;29.30;94.40;;;;;;4950470;29;19923;-73
2022/06/26 11:49:25;;;;;;;;;;;29.40;95.20;;;;;;4948998;28;19934;-73
2022/06/26 11:51:57;;;;;;;;;;;29.50;94.40;;;;;;4951564;29;19922;-72
2022/06/26 11:54:29;;;;;;;;;;;29.70;95.40;;;;;;4949177;29;20409;-73
2022/06/26 11:57:08;;;;;;;;;;;29.70;94.60;;;;;;4969678;28;19922;-73
2022/06/26 11:59:43;;;;;;;;;;;29.80;94.50;;;;;;4948869;29;19923;-73
2022/06/26 12:02:22;;;;;;;;;;;29.80;93.10;;;;;;4949314;29;19929;-73
2022/06/26 12:04:55;;;;;;;;;;;29.70;93.80;;;;;;4967067;28;19954;-73
2022/06/26 12:07:39;;;;;;;;;;;29.70;93.90;;;;;;4942034;28;19938;-73
2022/06/26 12:10:11;;;;;;;;;;;29.70;93.20;;;;;;4955904;28;19933;-72
2022/06/26 12:12:49;;;;;;;;;;;29.90;92.90;;;;;;4947671;28;20402;-72
2022/06/26 12:15:21;;;;;;;;;;;30.00;92.70;;;;;;4966318;28;19926;-72
2022/06/26 12:17:57;;;;;;;;;;;30.10;92.40;;;;;;4951850;28;19922;-72
2022/06/26 12:20:36;;;;;;;;;;;30.10;91.80;;;;;;4957325;28;20327;-72
2022/06/26 12:23:08;;;;;;;;;;;30.10;91.80;;;;;;4950537;28;19938;-72
2022/06/26 12:25:43;;;;;;;;;;;30.20;90.40;;;;;;4950576;28;19923;-72
2022/06/26 12:28:22;;;;;;;;;;;30.40;91.20;;;;;;4960610;28;19927;-73
2022/06/26 12:30:54;;;;;;;;;;;30.50;90.10;;;;;;4954999;28;19933;-73
2022/06/26 12:33:25;;;;;;;;;;;30.50;88.90;;;;;;4945688;28;20272;-73
2022/06/26 12:35:57;;;;;;;;;;;30.70;90.20;;;;;;4960627;28;19970;-74
2022/06/26 12:38:29;;;;;;;;;;;30.80;87.80;;;;;;4953301;28;19923;-72
2022/06/26 12:41:04;;;;;;;;;;;30.90;85.60;;;;;;4944867;28;20323;-73
2022/06/26 12:43:36;;;;;;;;;;;31.10;85.60;;;;;;4947695;28;20413;-73
2022/06/26 12:46:07;;;;;;;;;;;31.20;84.40;;;;;;4949475;29;20022;-73
2022/06/26 12:48:39;;;;;;;;;;;31.20;82.90;;;;;;4964132;28;19922;-73
2022/06/26 12:51:11;;;;;;;;;;;31.30;83.30;;;;;;4954873;28;19922;-73
2022/06/26 12:53:43;;;;;;;;;;;31.40;82.90;;;;;;4935343;29;19923;-73
2022/06/26 12:56:15;;;;;;;;;;;31.40;81.10;;;;;;4950985;29;19986;-73
2022/06/26 12:58:46;;;;;;;;;;;31.40;83.80;;;;;;4951420;29;19926;-72
2022/06/26 13:01:18;;;;;;;;;;;31.50;84.10;;;;;;4936528;29;20013;-73
2022/06/26 13:03:50;;;;;;;;;;;31.60;79.50;;;;;;4951072;29;19922;-73
2022/06/26 13:06:21;;;;;;;;;;;31.60;80.30;;;;;;4980382;28;20077;-73
2022/06/26 13:08:53;;;;;;;;;;;31.70;80.00;;;;;;4945464;29;20383;-74
2022/06/26 13:11:26;;;;;;;;;;;31.40;81.30;;;;;;4944436;28;19927;-73
2022/06/26 13:13:57;;;;;;;;;;;31.00;81.90;;;;;;4946507;29;19926;-73
2022/06/26 13:16:29;;;;;;;;;;;30.80;81.60;;;;;;4944647;28;20301;-73
2022/06/26 13:18:55;;;;;;;;;;;30.90;78.60;;;;;;4959020;28;20397;-73
2022/06/26 13:21:27;;;;;;;;;;;31.00;80.10;;;;;;4958973;28;19922;-73
2022/06/26 13:23:59;;;;;;;;;;;31.20;79.90;;;;;;4961744;28;19926;-73
2022/06/26 13:26:31;;;;;;;;;;;31.40;80.40;;;;;;4964232;28;20009;-73
2022/06/26 13:29:02;;;;;;;;;;;31.60;79.20;;;;;;4941710;29;19922;-73
2022/06/26 13:31:34;;;;;;;;;;;31.70;78.00;;;;;;4976288;28;19980;-73
2022/06/26 13:34:06;;;;;;;;;;;31.80;76.70;;;;;;4959342;28;19997;-72
2022/06/26 13:36:38;;;;;;;;;;;31.80;76.30;;;;;;4944951;29;19926;-73
2022/06/26 13:39:09;;;;;;;;;;;31.70;77.50;;;;;;4948574;29;20017;-73
2022/06/26 13:41:36;;;;;;;;;;;31.60;77.00;;;;;;4948736;28;19927;-73
2022/06/26 13:44:03;;;;;;;;;;;31.60;78.40;;;;;;4943885;28;20272;-73
2022/06/26 13:46:34;;;;;;;;;;;31.70;79.10;;;;;;4946383;28;19929;-73
2022/06/26 13:49:08;;;;;;;;;;;31.80;77.60;;;;;;4962720;28;19930;-73
2022/06/26 13:51:39;;;;;;;;;;;32.10;78.40;;;;;;4939397;29;19926;-73
2022/06/26 13:54:11;;;;;;;;;;;32.20;75.30;;;;;;4945884;29;20360;-73
2022/06/26 13:56:43;;;;;;;;;;;32.10;75.00;;;;;;4943235;29;19934;-73
2022/06/26 13:59:16;;;;;;;;;;;31.90;73.90;;;;;;4937659;29;19922;-74
2022/06/26 14:01:47;;;;;;;;;;;31.90;71.40;;;;;;4950686;29;19967;-73
2022/06/26 14:04:20;;;;;;;;;;;32.00;74.00;;;;;;4944551;28;19922;-73
2022/06/26 14:06:52;;;;;;;;;;;32.20;73.20;;;;;;4943392;29;19922;-72
2022/06/26 14:09:23;;;;;;;;;;;32.40;71.40;;;;;;4976860;28;20281;-72
2022/06/26 14:11:56;;;;;;;;;;;32.40;69.20;;;;;;4964039;28;20347;-73
2022/06/26 14:14:28;;;;;;;;;;;32.20;69.30;;;;;;4962834;28;19922;-73
2022/06/26 14:17:00;;;;;;;;;;;31.90;70.10;;;;;;4949567;29;19923;-73
2022/06/26 14:19:31;;;;;;;;;;;31.90;71.70;;;;;;4935289;29;19922;-73
2022/06/26 14:27:44;;;;;;;;;;;32.40;74.20;;;;;;4939775;29;20013;-73
2022/06/26 14:30:15;;;;;;;;;;;32.70;73.00;;;;;;4949686;28;19929;-72
2022/06/26 14:32:47;;;;;;;;;;;32.80;69.90;;;;;;4958381;28;20028;-73
2022/06/26 14:35:14;;;;;;;;;;;32.90;72.00;;;;;;4960433;28;19923;-73
2022/06/26 14:37:45;;;;;;;;;;;33.00;71.30;;;;;;4941414;29;19929;-73
2022/06/26 14:40:12;;;;;;;;;;;33.20;70.90;;;;;;4949205;28;20387;-73
2022/06/26 14:42:44;;;;;;;;;;;33.30;71.60;;;;;;4949898;28;19923;-73
2022/06/26 14:45:16;;;;;;;;;;;33.40;70.50;;;;;;4958275;28;20665;-72
2022/06/26 14:47:48;;;;;;;;;;;33.50;70.10;;;;;;4968506;28;19958;-74
2022/06/26 14:50:19;;;;;;;;;;;33.60;68.60;;;;;;4951305;28;20033;-73
2022/06/26 14:52:51;;;;;;;;;;;33.60;68.50;;;;;;4946205;28;19922;-73
2022/06/26 14:55:23;;;;;;;;;;;33.80;67.50;;;;;;4947795;28;19930;-73
2022/06/26 14:57:56;;;;;;;;;;;33.90;66.80;;;;;;4946823;29;19929;-74
2022/06/26 15:00:27;;;;;;;;;;;33.90;67.90;;;;;;4940880;29;19922;-73
2022/06/26 15:02:54;;;;;;;;;;;34.20;67.10;;;;;;4942103;28;19976;-73
2022/06/26 15:05:26;;;;;;;;;;;34.30;67.00;;;;;;4987276;28;19934;-73